sensor_id;sensor_type;location;lat;lon;timestamp;temperature;humidity
11536;DHT22;5824;49.336;8.652;2023-01-19T00:01:23;-1.10;1.00
11536;DHT22;5824;49.336;8.652;2023-01-19T00:03:49;-0.90;1.00
11536;DHT22;5824;49.336;8.652;2023-01-19T00:06:15;-0.90;1.00
11536;DHT22;5824;49.336;8.652;2023-01-19T00:08:41;-1.40;1.00
11536;DHT22;5824;49.336;8.652;2023-01-19T00:11:09;-1.00;1.00
11536;DHT22;5824;49.336;8.652;2023-01-19T00:13:35;-1.00;1.00
11536;DHT22;5824;49.336;8.652;2023-01-19T00:16:01;-1.00;1.00
11536;DHT22;5824;49.336;8.652;2023-01-19T00:18:26;-1.00;1.00
11536;DHT22;5824;49.336;8.652;2023-01-19T00:20:52;-1.30;1.00
11536;DHT22;5824;49.336;8.652;2023-01-19T00:23:17;-1.00;1.00
11536;DHT22;5824;49.336;8.652;2023-01-19T00:25:44;-1.40;1.00
11536;DHT22;5824;49.336;8.652;2023-01-19T00:28:13;-1.40;1.00
11536;DHT22;5824;49.336;8.652;2023-01-19T00:30:39;-0.90;1.40
11536;DHT22;5824;49.336;8.652;2023-01-19T00:33:04;-0.90;2.00
11536;DHT22;5824;49.336;8.652;2023-01-19T00:35:30;-1.30;1.00
11536;DHT22;5824;49.336;8.652;2023-01-19T00:37:57;-1.30;1.10
11536;DHT22;5824;49.336;8.652;2023-01-19T00:40:22;-0.80;1.00
11536;DHT22;5824;49.336;8.652;2023-01-19T00:42:48;-0.80;5.00
11536;DHT22;5824;49.336;8.652;2023-01-19T00:45:16;-1.20;1.00
11536;DHT22;5824;49.336;8.652;2023-01-19T00:47:43;-1.20;1.00
11536;DHT22;5824;49.336;8.652;2023-01-19T00:50:10;-0.70;1.00
11536;DHT22;5824;49.336;8.652;2023-01-19T00:52:36;-1.10;1.00
11536;DHT22;5824;49.336;8.652;2023-01-19T00:55:02;-1.10;1.00
11536;DHT22;5824;49.336;8.652;2023-01-19T00:57:28;-1.20;1.00
11536;DHT22;5824;49.336;8.652;2023-01-19T00:59:53;-1.20;1.20
11536;DHT22;5824;49.336;8.652;2023-01-19T01:02:19;-1.20;1.00
11536;DHT22;5824;49.336;8.652;2023-01-19T01:04:44;-1.10;3.40
11536;DHT22;5824;49.336;8.652;2023-01-19T01:07:10;-1.20;3.50
11536;DHT22;5824;49.336;8.652;2023-01-19T01:09:36;-0.80;4.70
11536;DHT22;5824;49.336;8.652;2023-01-19T01:12:01;-1.20;3.00
11536;DHT22;5824;49.336;8.652;2023-01-19T01:14:27;-1.10;4.90
11536;DHT22;5824;49.336;8.652;2023-01-19T01:16:53;-1.10;3.20
11536;DHT22;5824;49.336;8.652;2023-01-19T01:19:19;-0.50;2.80
11536;DHT22;5824;49.336;8.652;2023-01-19T01:21:45;-0.50;3.40
11536;DHT22;5824;49.336;8.652;2023-01-19T01:24:11;-0.50;5.50
11536;DHT22;5824;49.336;8.652;2023-01-19T01:26:36;-0.50;3.90
11536;DHT22;5824;49.336;8.652;2023-01-19T01:29:03;-0.30;4.50
11536;DHT22;5824;49.336;8.652;2023-01-19T01:31:28;-0.30;5.60
11536;DHT22;5824;49.336;8.652;2023-01-19T01:33:55;-0.30;2.80
11536;DHT22;5824;49.336;8.652;2023-01-19T01:36:20;-0.60;2.20
11536;DHT22;5824;49.336;8.652;2023-01-19T01:38:46;-0.70;1.00
11536;DHT22;5824;49.336;8.652;2023-01-19T01:41:12;-0.20;2.10
11536;DHT22;5824;49.336;8.652;2023-01-19T01:43:49;-0.60;3.00
11536;DHT22;5824;49.336;8.652;2023-01-19T01:46:16;-0.10;3.10
11536;DHT22;5824;49.336;8.652;2023-01-19T01:48:52;-0.20;5.40
11536;DHT22;5824;49.336;8.652;2023-01-19T01:56:33;-0.50;4.70
11536;DHT22;5824;49.336;8.652;2023-01-19T01:59:02;0.00;5.70
11536;DHT22;5824;49.336;8.652;2023-01-19T02:01:29;0.10;3.50
11536;DHT22;5824;49.336;8.652;2023-01-19T02:04:13;-0.30;1.70
11536;DHT22;5824;49.336;8.652;2023-01-19T02:06:39;-0.20;1.00
11536;DHT22;5824;49.336;8.652;2023-01-19T02:09:25;-0.30;1.60
11536;DHT22;5824;49.336;8.652;2023-01-19T02:12:12;-0.30;2.70
11536;DHT22;5824;49.336;8.652;2023-01-19T02:14:56;-0.40;4.40
11536;DHT22;5824;49.336;8.652;2023-01-19T02:17:22;-0.50;2.40
11536;DHT22;5824;49.336;8.652;2023-01-19T02:19:47;-0.50;5.10
11536;DHT22;5824;49.336;8.652;2023-01-19T02:22:24;-0.10;6.40
11536;DHT22;5824;49.336;8.652;2023-01-19T02:24:53;-0.50;5.80
11536;DHT22;5824;49.336;8.652;2023-01-19T02:27:19;-0.10;5.50
11536;DHT22;5824;49.336;8.652;2023-01-19T02:29:45;-0.40;4.40
11536;DHT22;5824;49.336;8.652;2023-01-19T02:32:11;-0.30;3.00
11536;DHT22;5824;49.336;8.652;2023-01-19T02:34:37;-0.20;2.50
11536;DHT22;5824;49.336;8.652;2023-01-19T02:37:08;-0.20;2.70
11536;DHT22;5824;49.336;8.652;2023-01-19T02:39:40;-0.50;1.20
11536;DHT22;5824;49.336;8.652;2023-01-19T02:42:26;0.10;2.90
11536;DHT22;5824;49.336;8.652;2023-01-19T02:44:54;-0.20;1.70
11536;DHT22;5824;49.336;8.652;2023-01-19T02:47:20;-0.10;1.20
11536;DHT22;5824;49.336;8.652;2023-01-19T02:49:59;-0.10;1.00
11536;DHT22;5824;49.336;8.652;2023-01-19T02:52:25;0.10;1.00
11536;DHT22;5824;49.336;8.652;2023-01-19T02:55:16;0.00;1.00
11536;DHT22;5824;49.336;8.652;2023-01-19T03:03:08;0.60;1.00
11536;DHT22;5824;49.336;8.652;2023-01-19T03:05:49;0.20;1.00
11536;DHT22;5824;49.336;8.652;2023-01-19T03:11:03;0.10;1.00
11536;DHT22;5824;49.336;8.652;2023-01-19T03:13:56;0.10;1.00
11536;DHT22;5824;49.336;8.652;2023-01-19T03:16:41;0.10;1.00
11536;DHT22;5824;49.336;8.652;2023-01-19T03:19:18;0.60;1.00
11536;DHT22;5824;49.336;8.652;2023-01-19T03:21:53;0.20;1.00
11536;DHT22;5824;49.336;8.652;2023-01-19T03:24:20;0.50;1.00
11536;DHT22;5824;49.336;8.652;2023-01-19T03:26:51;0.20;1.00
11536;DHT22;5824;49.336;8.652;2023-01-19T03:29:21;0.40;1.00
11536;DHT22;5824;49.336;8.652;2023-01-19T03:31:48;0.70;1.00
11536;DHT22;5824;49.336;8.652;2023-01-19T03:34:15;0.30;1.00
11536;DHT22;5824;49.336;8.652;2023-01-19T03:36:45;0.30;1.00
11536;DHT22;5824;49.336;8.652;2023-01-19T03:39:15;0.70;1.00
11536;DHT22;5824;49.336;8.652;2023-01-19T03:41:43;0.40;1.00
11536;DHT22;5824;49.336;8.652;2023-01-19T03:44:12;0.40;1.00
11536;DHT22;5824;49.336;8.652;2023-01-19T03:46:39;0.40;1.00
11536;DHT22;5824;49.336;8.652;2023-01-19T03:49:05;0.40;1.00
11536;DHT22;5824;49.336;8.652;2023-01-19T03:51:35;0.40;1.00
11536;DHT22;5824;49.336;8.652;2023-01-19T03:54:02;0.80;1.00
11536;DHT22;5824;49.336;8.652;2023-01-19T03:56:29;0.50;1.00
11536;DHT22;5824;49.336;8.652;2023-01-19T03:58:55;0.50;1.00
11536;DHT22;5824;49.336;8.652;2023-01-19T04:01:21;0.50;1.00
11536;DHT22;5824;49.336;8.652;2023-01-19T04:03:48;0.20;1.00
11536;DHT22;5824;49.336;8.652;2023-01-19T04:06:13;0.50;1.00
11536;DHT22;5824;49.336;8.652;2023-01-19T04:08:39;0.60;1.00
11536;DHT22;5824;49.336;8.652;2023-01-19T04:11:05;0.50;1.00
11536;DHT22;5824;49.336;8.652;2023-01-19T04:13:33;0.50;1.00
11536;DHT22;5824;49.336;8.652;2023-01-19T04:16:02;0.50;1.00
11536;DHT22;5824;49.336;8.652;2023-01-19T04:18:29;0.60;1.00
11536;DHT22;5824;49.336;8.652;2023-01-19T04:20:58;0.60;1.00
11536;DHT22;5824;49.336;8.652;2023-01-19T04:23:23;0.60;1.00
11536;DHT22;5824;49.336;8.652;2023-01-19T04:25:49;0.40;1.00
11536;DHT22;5824;49.336;8.652;2023-01-19T04:28:15;0.30;1.00
11536;DHT22;5824;49.336;8.652;2023-01-19T04:30:40;0.40;1.00
11536;DHT22;5824;49.336;8.652;2023-01-19T04:33:06;0.70;1.00
11536;DHT22;5824;49.336;8.652;2023-01-19T04:35:32;0.30;1.70
11536;DHT22;5824;49.336;8.652;2023-01-19T04:37:58;0.50;2.40
11536;DHT22;5824;49.336;8.652;2023-01-19T04:40:24;0.20;2.10
11536;DHT22;5824;49.336;8.652;2023-01-19T04:42:49;0.50;2.00
11536;DHT22;5824;49.336;8.652;2023-01-19T04:45:15;0.10;2.10
11536;DHT22;5824;49.336;8.652;2023-01-19T04:47:41;0.10;1.60
11536;DHT22;5824;49.336;8.652;2023-01-19T04:50:08;0.10;1.50
11536;DHT22;5824;49.336;8.652;2023-01-19T04:52:34;0.10;3.40
11536;DHT22;5824;49.336;8.652;2023-01-19T04:55:01;0.40;3.60
11536;DHT22;5824;49.336;8.652;2023-01-19T04:57:27;0.50;2.90
11536;DHT22;5824;49.336;8.652;2023-01-19T04:59:54;0.70;2.20
11536;DHT22;5824;49.336;8.652;2023-01-19T05:02:20;0.60;1.00
11536;DHT22;5824;49.336;8.652;2023-01-19T05:04:47;0.30;1.00
11536;DHT22;5824;49.336;8.652;2023-01-19T05:07:12;0.40;1.00
11536;DHT22;5824;49.336;8.652;2023-01-19T05:09:38;0.50;1.00
11536;DHT22;5824;49.336;8.652;2023-01-19T05:12:03;1.00;1.00
11536;DHT22;5824;49.336;8.652;2023-01-19T05:14:29;0.70;1.00
11536;DHT22;5824;49.336;8.652;2023-01-19T05:16:55;0.80;1.00
11536;DHT22;5824;49.336;8.652;2023-01-19T05:19:21;0.70;1.00
11536;DHT22;5824;49.336;8.652;2023-01-19T05:21:46;1.10;1.00
11536;DHT22;5824;49.336;8.652;2023-01-19T05:24:12;0.80;1.00
11536;DHT22;5824;49.336;8.652;2023-01-19T05:26:37;1.00;1.00
11536;DHT22;5824;49.336;8.652;2023-01-19T05:29:03;1.10;1.00
11536;DHT22;5824;49.336;8.652;2023-01-19T05:31:29;1.20;1.00
11536;DHT22;5824;49.336;8.652;2023-01-19T05:33:54;1.00;1.00
11536;DHT22;5824;49.336;8.652;2023-01-19T05:36:20;0.70;1.00
11536;DHT22;5824;49.336;8.652;2023-01-19T05:38:45;0.60;1.00
11536;DHT22;5824;49.336;8.652;2023-01-19T05:41:11;1.10;1.00
11536;DHT22;5824;49.336;8.652;2023-01-19T05:43:36;0.50;1.00
11536;DHT22;5824;49.336;8.652;2023-01-19T05:46:03;0.80;1.00
11536;DHT22;5824;49.336;8.652;2023-01-19T05:48:29;0.50;1.00
11536;DHT22;5824;49.336;8.652;2023-01-19T05:50:58;0.80;1.70
11536;DHT22;5824;49.336;8.652;2023-01-19T05:53:24;0.50;1.90
11536;DHT22;5824;49.336;8.652;2023-01-19T05:55:50;0.50;2.60
11536;DHT22;5824;49.336;8.652;2023-01-19T05:58:15;0.50;3.60
11536;DHT22;5824;49.336;8.652;2023-01-19T06:00:41;0.40;4.90
11536;DHT22;5824;49.336;8.652;2023-01-19T06:03:06;0.30;5.10
11536;DHT22;5824;49.336;8.652;2023-01-19T06:05:32;0.30;6.40
11536;DHT22;5824;49.336;8.652;2023-01-19T06:07:58;0.80;7.40
11536;DHT22;5824;49.336;8.652;2023-01-19T06:10:24;0.30;7.70
11536;DHT22;5824;49.336;8.652;2023-01-19T06:12:49;0.30;6.90
11536;DHT22;5824;49.336;8.652;2023-01-19T06:15:16;0.40;5.30
11536;DHT22;5824;49.336;8.652;2023-01-19T06:17:42;0.80;5.80
11536;DHT22;5824;49.336;8.652;2023-01-19T06:20:08;0.70;3.90
11536;DHT22;5824;49.336;8.652;2023-01-19T06:22:34;0.50;4.40
11536;DHT22;5824;49.336;8.652;2023-01-19T06:24:59;0.60;4.60
11536;DHT22;5824;49.336;8.652;2023-01-19T06:27:25;0.70;2.80
11536;DHT22;5824;49.336;8.652;2023-01-19T06:29:50;0.80;1.00
11536;DHT22;5824;49.336;8.652;2023-01-19T06:32:16;0.90;1.00
11536;DHT22;5824;49.336;8.652;2023-01-19T06:34:41;1.40;1.00
11536;DHT22;5824;49.336;8.652;2023-01-19T06:37:08;1.30;1.00
11536;DHT22;5824;49.336;8.652;2023-01-19T06:39:35;1.60;1.00
11536;DHT22;5824;49.336;8.652;2023-01-19T06:42:02;1.10;1.00
11536;DHT22;5824;49.336;8.652;2023-01-19T06:44:28;1.40;1.00
11536;DHT22;5824;49.336;8.652;2023-01-19T06:46:53;1.10;1.00
11536;DHT22;5824;49.336;8.652;2023-01-19T06:49:19;1.20;1.00
11536;DHT22;5824;49.336;8.652;2023-01-19T06:51:44;1.50;1.00
11536;DHT22;5824;49.336;8.652;2023-01-19T06:54:10;1.70;1.00
11536;DHT22;5824;49.336;8.652;2023-01-19T06:56:35;1.70;1.00
11536;DHT22;5824;49.336;8.652;2023-01-19T06:59:01;1.30;1.00
11536;DHT22;5824;49.336;8.652;2023-01-19T07:01:26;1.30;1.00
11536;DHT22;5824;49.336;8.652;2023-01-19T07:03:52;1.30;1.00
11536;DHT22;5824;49.336;8.652;2023-01-19T07:06:17;1.80;1.00
11536;DHT22;5824;49.336;8.652;2023-01-19T07:08:43;1.30;1.00
11536;DHT22;5824;49.336;8.652;2023-01-19T07:11:11;1.30;1.00
11536;DHT22;5824;49.336;8.652;2023-01-19T07:13:38;1.30;1.00
11536;DHT22;5824;49.336;8.652;2023-01-19T07:16:09;1.30;1.00
11536;DHT22;5824;49.336;8.652;2023-01-19T07:18:35;1.30;1.00
11536;DHT22;5824;49.336;8.652;2023-01-19T07:21:02;1.50;1.00
11536;DHT22;5824;49.336;8.652;2023-01-19T07:23:28;1.50;1.00
11536;DHT22;5824;49.336;8.652;2023-01-19T07:25:56;1.80;1.00
11536;DHT22;5824;49.336;8.652;2023-01-19T07:28:22;1.50;1.00
11536;DHT22;5824;49.336;8.652;2023-01-19T07:30:51;1.50;1.00
11536;DHT22;5824;49.336;8.652;2023-01-19T07:33:17;1.60;1.00
11536;DHT22;5824;49.336;8.652;2023-01-19T07:35:46;1.60;1.00
11536;DHT22;5824;49.336;8.652;2023-01-19T07:38:13;1.60;1.00
11536;DHT22;5824;49.336;8.652;2023-01-19T07:40:38;1.60;1.00
11536;DHT22;5824;49.336;8.652;2023-01-19T07:43:04;2.10;1.00
11536;DHT22;5824;49.336;8.652;2023-01-19T07:45:29;1.80;1.00
11536;DHT22;5824;49.336;8.652;2023-01-19T07:47:55;2.40;1.00
11536;DHT22;5824;49.336;8.652;2023-01-19T07:50:21;2.00;1.00
11536;DHT22;5824;49.336;8.652;2023-01-19T07:52:50;2.00;1.00
11536;DHT22;5824;49.336;8.652;2023-01-19T07:55:18;2.50;1.00
11536;DHT22;5824;49.336;8.652;2023-01-19T07:57:44;2.10;1.00
11536;DHT22;5824;49.336;8.652;2023-01-19T08:00:10;2.50;1.00
11536;DHT22;5824;49.336;8.652;2023-01-19T08:02:35;2.20;1.00
11536;DHT22;5824;49.336;8.652;2023-01-19T08:05:02;2.60;1.00
11536;DHT22;5824;49.336;8.652;2023-01-19T08:07:28;2.20;1.00
11536;DHT22;5824;49.336;8.652;2023-01-19T08:09:53;2.70;1.00
11536;DHT22;5824;49.336;8.652;2023-01-19T08:12:19;2.20;1.00
11536;DHT22;5824;49.336;8.652;2023-01-19T08:14:44;2.20;1.00
11536;DHT22;5824;49.336;8.652;2023-01-19T08:17:11;2.20;1.00
11536;DHT22;5824;49.336;8.652;2023-01-19T08:19:37;2.70;1.00
11536;DHT22;5824;49.336;8.652;2023-01-19T08:22:03;2.30;1.00
11536;DHT22;5824;49.336;8.652;2023-01-19T08:24:30;2.30;1.00
11536;DHT22;5824;49.336;8.652;2023-01-19T08:27:00;2.40;1.00
11536;DHT22;5824;49.336;8.652;2023-01-19T08:29:26;2.50;1.00
11536;DHT22;5824;49.336;8.652;2023-01-19T08:31:51;2.50;1.00
11536;DHT22;5824;49.336;8.652;2023-01-19T08:34:20;2.60;1.00
11536;DHT22;5824;49.336;8.652;2023-01-19T08:36:45;3.00;1.00
11536;DHT22;5824;49.336;8.652;2023-01-19T08:39:11;3.00;1.00
11536;DHT22;5824;49.336;8.652;2023-01-19T08:41:37;2.80;1.00
11536;DHT22;5824;49.336;8.652;2023-01-19T08:44:03;2.70;1.00
11536;DHT22;5824;49.336;8.652;2023-01-19T08:46:28;2.70;1.00
11536;DHT22;5824;49.336;8.652;2023-01-19T08:48:54;3.10;1.00
11536;DHT22;5824;49.336;8.652;2023-01-19T08:51:19;2.60;1.00
11536;DHT22;5824;49.336;8.652;2023-01-19T08:53:45;2.60;1.00
11536;DHT22;5824;49.336;8.652;2023-01-19T08:56:11;2.60;1.00
11536;DHT22;5824;49.336;8.652;2023-01-19T08:58:42;2.60;1.00
11536;DHT22;5824;49.336;8.652;2023-01-19T09:01:12;2.60;1.00
11536;DHT22;5824;49.336;8.652;2023-01-19T09:03:46;2.70;1.00
11536;DHT22;5824;49.336;8.652;2023-01-19T09:06:15;2.80;1.00
11536;DHT22;5824;49.336;8.652;2023-01-19T09:08:42;3.20;1.00
11536;DHT22;5824;49.336;8.652;2023-01-19T09:11:09;2.80;1.00
11536;DHT22;5824;49.336;8.652;2023-01-19T09:13:38;2.90;1.00
11536;DHT22;5824;49.336;8.652;2023-01-19T09:16:04;3.10;1.00
11536;DHT22;5824;49.336;8.652;2023-01-19T09:18:32;2.70;1.00
11536;DHT22;5824;49.336;8.652;2023-01-19T09:20:58;3.10;1.00
11536;DHT22;5824;49.336;8.652;2023-01-19T09:23:25;2.70;1.00
11536;DHT22;5824;49.336;8.652;2023-01-19T09:25:55;3.20;1.00
11536;DHT22;5824;49.336;8.652;2023-01-19T09:28:21;2.90;1.00
11536;DHT22;5824;49.336;8.652;2023-01-19T09:30:47;3.40;1.00
11536;DHT22;5824;49.336;8.652;2023-01-19T09:33:15;3.20;1.00
11536;DHT22;5824;49.336;8.652;2023-01-19T09:35:41;2.90;1.00
11536;DHT22;5824;49.336;8.652;2023-01-19T09:38:08;3.10;1.00
11536;DHT22;5824;49.336;8.652;2023-01-19T09:40:42;3.00;1.00
11536;DHT22;5824;49.336;8.652;2023-01-19T09:43:12;2.90;1.00
11536;DHT22;5824;49.336;8.652;2023-01-19T09:45:54;2.80;1.00
11536;DHT22;5824;49.336;8.652;2023-01-19T09:51:02;3.00;1.00
11536;DHT22;5824;49.336;8.652;2023-01-19T09:56:03;3.00;1.00
11536;DHT22;5824;49.336;8.652;2023-01-19T09:58:28;3.10;1.00
11536;DHT22;5824;49.336;8.652;2023-01-19T10:01:04;3.10;1.00
11536;DHT22;5824;49.336;8.652;2023-01-19T10:03:34;3.30;1.00
11536;DHT22;5824;49.336;8.652;2023-01-19T10:06:04;3.10;1.00
11536;DHT22;5824;49.336;8.652;2023-01-19T10:08:54;3.20;1.00
11536;DHT22;5824;49.336;8.652;2023-01-19T10:11:45;3.20;1.00
11536;DHT22;5824;49.336;8.652;2023-01-19T10:14:24;3.10;1.00
11536;DHT22;5824;49.336;8.652;2023-01-19T10:17:21;3.00;1.00
11536;DHT22;5824;49.336;8.652;2023-01-19T10:19:52;3.00;1.00
11536;DHT22;5824;49.336;8.652;2023-01-19T10:24:49;2.90;1.00
11536;DHT22;5824;49.336;8.652;2023-01-19T10:27:19;2.90;1.00
11536;DHT22;5824;49.336;8.652;2023-01-19T10:29:48;3.40;1.00
11536;DHT22;5824;49.336;8.652;2023-01-19T10:32:32;3.20;1.00
11536;DHT22;5824;49.336;8.652;2023-01-19T10:34:58;3.30;1.00
11536;DHT22;5824;49.336;8.652;2023-01-19T10:37:32;3.50;1.00
11536;DHT22;5824;49.336;8.652;2023-01-19T10:40:16;3.80;1.00
11536;DHT22;5824;49.336;8.652;2023-01-19T10:42:44;3.80;1.00
11536;DHT22;5824;49.336;8.652;2023-01-19T10:45:18;3.70;1.00
11536;DHT22;5824;49.336;8.652;2023-01-19T10:47:45;3.80;1.00
11536;DHT22;5824;49.336;8.652;2023-01-19T10:50:30;3.80;1.00
11536;DHT22;5824;49.336;8.652;2023-01-19T10:53:00;4.50;1.00
11536;DHT22;5824;49.336;8.652;2023-01-19T10:55:30;4.00;1.00
11536;DHT22;5824;49.336;8.652;2023-01-19T10:57:56;4.00;1.00
11536;DHT22;5824;49.336;8.652;2023-01-19T11:00:36;4.10;1.00
11536;DHT22;5824;49.336;8.652;2023-01-19T11:03:21;4.30;1.00
11536;DHT22;5824;49.336;8.652;2023-01-19T11:05:47;4.70;1.00
11536;DHT22;5824;49.336;8.652;2023-01-19T11:08:28;5.40;1.00
11536;DHT22;5824;49.336;8.652;2023-01-19T11:11:01;6.10;1.00
11536;DHT22;5824;49.336;8.652;2023-01-19T11:13:29;5.60;1.00
11536;DHT22;5824;49.336;8.652;2023-01-19T11:15:58;5.20;1.00
11536;DHT22;5824;49.336;8.652;2023-01-19T11:18:38;5.10;1.00
11536;DHT22;5824;49.336;8.652;2023-01-19T11:21:08;5.20;1.00
11536;DHT22;5824;49.336;8.652;2023-01-19T11:23:50;5.00;1.00
11536;DHT22;5824;49.336;8.652;2023-01-19T11:26:41;5.30;1.00
11536;DHT22;5824;49.336;8.652;2023-01-19T11:29:22;4.50;1.00
11536;DHT22;5824;49.336;8.652;2023-01-19T11:31:50;4.50;1.00
11536;DHT22;5824;49.336;8.652;2023-01-19T11:34:31;4.50;1.00
11536;DHT22;5824;49.336;8.652;2023-01-19T11:37:04;4.50;1.00
11536;DHT22;5824;49.336;8.652;2023-01-19T11:39:33;4.10;1.00
11536;DHT22;5824;49.336;8.652;2023-01-19T11:42:11;4.50;1.00
11536;DHT22;5824;49.336;8.652;2023-01-19T11:45:05;3.90;1.00
11536;DHT22;5824;49.336;8.652;2023-01-19T11:47:45;3.90;1.00
11536;DHT22;5824;49.336;8.652;2023-01-19T11:53:03;3.70;1.00
11536;DHT22;5824;49.336;8.652;2023-01-19T11:55:45;3.70;1.00
11536;DHT22;5824;49.336;8.652;2023-01-19T11:58:14;4.20;1.00
11536;DHT22;5824;49.336;8.652;2023-01-19T12:00:44;3.90;1.00
11536;DHT22;5824;49.336;8.652;2023-01-19T12:03:39;4.30;1.00
11536;DHT22;5824;49.336;8.652;2023-01-19T12:06:11;4.00;1.00
11536;DHT22;5824;49.336;8.652;2023-01-19T12:08:48;4.10;1.00
11536;DHT22;5824;49.336;8.652;2023-01-19T12:11:19;4.10;1.00
11536;DHT22;5824;49.336;8.652;2023-01-19T12:13:47;4.20;1.00
11536;DHT22;5824;49.336;8.652;2023-01-19T12:16:19;4.10;1.00
11536;DHT22;5824;49.336;8.652;2023-01-19T12:18:57;4.50;1.00
11536;DHT22;5824;49.336;8.652;2023-01-19T12:21:23;4.10;1.00
11536;DHT22;5824;49.336;8.652;2023-01-19T12:26:55;4.00;1.00
11536;DHT22;5824;49.336;8.652;2023-01-19T12:29:23;4.10;1.00
11536;DHT22;5824;49.336;8.652;2023-01-19T12:32:15;4.70;1.00
11536;DHT22;5824;49.336;8.652;2023-01-19T12:34:48;4.30;1.00
11536;DHT22;5824;49.336;8.652;2023-01-19T12:37:40;4.20;1.00
11536;DHT22;5824;49.336;8.652;2023-01-19T12:40:27;4.90;1.00
11536;DHT22;5824;49.336;8.652;2023-01-19T12:43:02;4.50;1.00
11536;DHT22;5824;49.336;8.652;2023-01-19T12:45:33;4.50;1.00
11536;DHT22;5824;49.336;8.652;2023-01-19T12:47:59;4.50;1.00
11536;DHT22;5824;49.336;8.652;2023-01-19T12:50:34;4.60;1.00
11536;DHT22;5824;49.336;8.652;2023-01-19T12:53:03;4.70;1.00
11536;DHT22;5824;49.336;8.652;2023-01-19T12:55:35;4.90;1.00
11536;DHT22;5824;49.336;8.652;2023-01-19T12:58:19;5.10;1.00
11536;DHT22;5824;49.336;8.652;2023-01-19T13:00:47;5.50;1.00
11536;DHT22;5824;49.336;8.652;2023-01-19T13:13:31;5.90;1.00
11536;DHT22;5824;49.336;8.652;2023-01-19T13:18:47;5.20;1.00
11536;DHT22;5824;49.336;8.652;2023-01-19T13:21:46;5.30;1.00
11536;DHT22;5824;49.336;8.652;2023-01-19T13:24:18;5.40;1.00
11536;DHT22;5824;49.336;8.652;2023-01-19T13:31:55;5.10;1.00
11536;DHT22;5824;49.336;8.652;2023-01-19T13:34:28;5.30;1.00
11536;DHT22;5824;49.336;8.652;2023-01-19T13:36:55;5.80;1.00
11536;DHT22;5824;49.336;8.652;2023-01-19T13:39:33;5.40;1.00
11536;DHT22;5824;49.336;8.652;2023-01-19T13:42:03;5.20;1.00
11536;DHT22;5824;49.336;8.652;2023-01-19T13:44:37;5.00;1.00
11536;DHT22;5824;49.336;8.652;2023-01-19T13:47:07;4.90;1.00
11536;DHT22;5824;49.336;8.652;2023-01-19T13:49:38;5.00;1.00
11536;DHT22;5824;49.336;8.652;2023-01-19T13:54:49;4.80;1.00
11536;DHT22;5824;49.336;8.652;2023-01-19T13:57:31;4.90;1.00
11536;DHT22;5824;49.336;8.652;2023-01-19T14:02:33;5.00;1.00
11536;DHT22;5824;49.336;8.652;2023-01-19T14:05:22;4.60;1.00
11536;DHT22;5824;49.336;8.652;2023-01-19T14:08:02;4.90;1.00
11536;DHT22;5824;49.336;8.652;2023-01-19T14:10:28;4.90;1.00
11536;DHT22;5824;49.336;8.652;2023-01-19T14:15:25;4.60;1.00
11536;DHT22;5824;49.336;8.652;2023-01-19T14:21:08;4.70;1.00
11536;DHT22;5824;49.336;8.652;2023-01-19T14:23:39;4.70;1.00
11536;DHT22;5824;49.336;8.652;2023-01-19T14:26:45;4.70;1.00
11536;DHT22;5824;49.336;8.652;2023-01-19T14:29:17;4.50;1.00
11536;DHT22;5824;49.336;8.652;2023-01-19T14:34:38;4.50;1.00
11536;DHT22;5824;49.336;8.652;2023-01-19T14:37:27;4.50;1.00
11536;DHT22;5824;49.336;8.652;2023-01-19T14:42:57;4.50;1.00
11536;DHT22;5824;49.336;8.652;2023-01-19T14:45:29;4.50;1.00
11536;DHT22;5824;49.336;8.652;2023-01-19T14:48:02;4.60;1.00
11536;DHT22;5824;49.336;8.652;2023-01-19T14:50:32;4.50;1.00
11536;DHT22;5824;49.336;8.652;2023-01-19T14:53:04;4.40;1.00
11536;DHT22;5824;49.336;8.652;2023-01-19T14:55:44;4.40;1.00
11536;DHT22;5824;49.336;8.652;2023-01-19T14:58:12;4.40;1.00
11536;DHT22;5824;49.336;8.652;2023-01-19T15:00:39;4.30;1.00
11536;DHT22;5824;49.336;8.652;2023-01-19T15:03:05;4.70;1.00
11536;DHT22;5824;49.336;8.652;2023-01-19T15:05:32;4.40;1.00
11536;DHT22;5824;49.336;8.652;2023-01-19T15:07:57;4.10;1.00
11536;DHT22;5824;49.336;8.652;2023-01-19T15:10:24;4.00;1.00
11536;DHT22;5824;49.336;8.652;2023-01-19T15:12:51;4.10;1.00
11536;DHT22;5824;49.336;8.652;2023-01-19T15:15:23;3.80;1.00
11536;DHT22;5824;49.336;8.652;2023-01-19T15:17:50;3.80;1.00
11536;DHT22;5824;49.336;8.652;2023-01-19T15:20:18;3.80;1.00
11536;DHT22;5824;49.336;8.652;2023-01-19T15:22:45;3.90;1.00
11536;DHT22;5824;49.336;8.652;2023-01-19T15:25:19;3.80;1.00
11536;DHT22;5824;49.336;8.652;2023-01-19T15:27:45;4.20;1.00
11536;DHT22;5824;49.336;8.652;2023-01-19T15:30:18;4.00;1.00
11536;DHT22;5824;49.336;8.652;2023-01-19T15:32:44;3.80;1.00
11536;DHT22;5824;49.336;8.652;2023-01-19T15:35:18;3.90;1.00
11536;DHT22;5824;49.336;8.652;2023-01-19T15:37:44;3.90;1.00
11536;DHT22;5824;49.336;8.652;2023-01-19T15:40:10;3.90;1.00
11536;DHT22;5824;49.336;8.652;2023-01-19T15:42:36;4.00;1.00
11536;DHT22;5824;49.336;8.652;2023-01-19T15:45:01;4.10;1.00
11536;DHT22;5824;49.336;8.652;2023-01-19T15:47:27;4.00;1.00
11536;DHT22;5824;49.336;8.652;2023-01-19T15:49:52;4.00;1.00
11536;DHT22;5824;49.336;8.652;2023-01-19T15:52:18;4.30;1.00
11536;DHT22;5824;49.336;8.652;2023-01-19T15:54:43;4.40;1.00
11536;DHT22;5824;49.336;8.652;2023-01-19T15:57:12;4.10;1.00
11536;DHT22;5824;49.336;8.652;2023-01-19T15:59:37;4.00;1.00
11536;DHT22;5824;49.336;8.652;2023-01-19T16:02:02;3.80;1.00
11536;DHT22;5824;49.336;8.652;2023-01-19T16:04:28;3.80;1.00
11536;DHT22;5824;49.336;8.652;2023-01-19T16:06:53;3.90;1.00
11536;DHT22;5824;49.336;8.652;2023-01-19T16:09:19;3.90;1.00
11536;DHT22;5824;49.336;8.652;2023-01-19T16:11:45;4.00;1.00
11536;DHT22;5824;49.336;8.652;2023-01-19T16:14:11;3.90;1.00
11536;DHT22;5824;49.336;8.652;2023-01-19T16:16:36;4.20;1.00
11536;DHT22;5824;49.336;8.652;2023-01-19T16:19:02;4.00;1.00
11536;DHT22;5824;49.336;8.652;2023-01-19T16:21:28;4.00;1.00
11536;DHT22;5824;49.336;8.652;2023-01-19T16:23:53;4.30;1.00
11536;DHT22;5824;49.336;8.652;2023-01-19T16:26:31;4.00;1.00
11536;DHT22;5824;49.336;8.652;2023-01-19T16:29:04;4.30;1.00
11536;DHT22;5824;49.336;8.652;2023-01-19T16:31:34;4.00;1.00
11536;DHT22;5824;49.336;8.652;2023-01-19T16:34:00;4.00;1.00
11536;DHT22;5824;49.336;8.652;2023-01-19T16:36:28;4.30;1.00
11536;DHT22;5824;49.336;8.652;2023-01-19T16:38:57;3.80;1.00
11536;DHT22;5824;49.336;8.652;2023-01-19T16:41:23;3.90;1.00
11536;DHT22;5824;49.336;8.652;2023-01-19T16:43:53;3.80;1.00
11536;DHT22;5824;49.336;8.652;2023-01-19T16:46:27;3.70;1.00
11536;DHT22;5824;49.336;8.652;2023-01-19T16:48:58;3.70;1.00
11536;DHT22;5824;49.336;8.652;2023-01-19T16:51:23;3.90;1.00
11536;DHT22;5824;49.336;8.652;2023-01-19T16:53:49;3.60;1.00
11536;DHT22;5824;49.336;8.652;2023-01-19T16:56:15;3.60;1.00
11536;DHT22;5824;49.336;8.652;2023-01-19T16:58:57;3.60;1.00
11536;DHT22;5824;49.336;8.652;2023-01-19T17:01:24;4.10;1.00
11536;DHT22;5824;49.336;8.652;2023-01-19T17:03:50;3.80;1.00
11536;DHT22;5824;49.336;8.652;2023-01-19T17:06:18;3.60;1.00
11536;DHT22;5824;49.336;8.652;2023-01-19T17:08:46;4.00;1.00
11536;DHT22;5824;49.336;8.652;2023-01-19T17:11:14;3.70;1.00
11536;DHT22;5824;49.336;8.652;2023-01-19T17:13:45;3.70;1.00
11536;DHT22;5824;49.336;8.652;2023-01-19T17:16:10;3.70;1.00
11536;DHT22;5824;49.336;8.652;2023-01-19T17:18:37;3.80;1.00
11536;DHT22;5824;49.336;8.652;2023-01-19T17:21:04;4.10;1.00
11536;DHT22;5824;49.336;8.652;2023-01-19T17:23:30;3.80;1.00
11536;DHT22;5824;49.336;8.652;2023-01-19T17:25:57;4.40;1.00
11536;DHT22;5824;49.336;8.652;2023-01-19T17:28:23;3.80;1.00
11536;DHT22;5824;49.336;8.652;2023-01-19T17:30:49;3.90;1.00